sensor_id;sensor_type;location;lat;lon;timestamp;P1;durP1;ratioP1;P2;durP2;ratioP2
22644;SDS011;11489;50.834;6.752;2023-02-28T00:01:04;5.90;;;3.37;;
22644;SDS011;11489;50.834;6.752;2023-02-28T00:03:30;7.10;;;3.30;;
22644;SDS011;11489;50.834;6.752;2023-02-28T00:06:00;11.43;;;3.53;;
22644;SDS011;11489;50.834;6.752;2023-02-28T00:08:27;6.27;;;2.83;;
22644;SDS011;11489;50.834;6.752;2023-02-28T00:10:53;6.90;;;3.20;;
22644;SDS011;11489;50.834;6.752;2023-02-28T00:13:19;6.83;;;4.10;;
22644;SDS011;11489;50.834;6.752;2023-02-28T00:15:44;5.43;;;3.47;;
22644;SDS011;11489;50.834;6.752;2023-02-28T00:18:11;8.40;;;3.80;;
22644;SDS011;11489;50.834;6.752;2023-02-28T00:20:37;5.87;;;3.67;;
22644;SDS011;11489;50.834;6.752;2023-02-28T00:23:03;7.97;;;3.87;;
22644;SDS011;11489;50.834;6.752;2023-02-28T00:25:28;7.90;;;4.03;;
22644;SDS011;11489;50.834;6.752;2023-02-28T00:27:54;8.60;;;3.53;;
22644;SDS011;11489;50.834;6.752;2023-02-28T00:30:21;7.47;;;3.43;;
22644;SDS011;11489;50.834;6.752;2023-02-28T00:32:48;6.47;;;3.27;;
22644;SDS011;11489;50.834;6.752;2023-02-28T00:35:14;6.90;;;3.17;;
22644;SDS011;11489;50.834;6.752;2023-02-28T00:37:41;6.90;;;3.77;;
22644;SDS011;11489;50.834;6.752;2023-02-28T00:40:07;8.10;;;4.30;;
22644;SDS011;11489;50.834;6.752;2023-02-28T00:42:34;8.80;;;4.37;;
22644;SDS011;11489;50.834;6.752;2023-02-28T00:45:00;11.70;;;4.47;;
22644;SDS011;11489;50.834;6.752;2023-02-28T00:47:26;7.90;;;4.43;;
22644;SDS011;11489;50.834;6.752;2023-02-28T00:49:52;8.20;;;4.27;;
22644;SDS011;11489;50.834;6.752;2023-02-28T00:52:18;9.27;;;4.13;;
22644;SDS011;11489;50.834;6.752;2023-02-28T00:54:43;6.30;;;3.53;;
22644;SDS011;11489;50.834;6.752;2023-02-28T00:57:09;7.80;;;3.47;;
22644;SDS011;11489;50.834;6.752;2023-02-28T00:59:35;6.30;;;3.57;;
22644;SDS011;11489;50.834;6.752;2023-02-28T01:02:00;9.17;;;3.73;;
22644;SDS011;11489;50.834;6.752;2023-02-28T01:04:26;9.33;;;3.90;;
22644;SDS011;11489;50.834;6.752;2023-02-28T01:06:52;5.17;;;3.20;;
22644;SDS011;11489;50.834;6.752;2023-02-28T01:09:17;6.47;;;3.57;;
22644;SDS011;11489;50.834;6.752;2023-02-28T01:11:43;5.47;;;3.00;;
22644;SDS011;11489;50.834;6.752;2023-02-28T01:14:11;7.33;;;3.53;;
22644;SDS011;11489;50.834;6.752;2023-02-28T01:16:38;6.73;;;3.60;;
22644;SDS011;11489;50.834;6.752;2023-02-28T01:19:04;5.57;;;3.30;;
22644;SDS011;11489;50.834;6.752;2023-02-28T01:21:30;7.00;;;3.60;;
22644;SDS011;11489;50.834;6.752;2023-02-28T01:23:56;9.60;;;3.50;;
22644;SDS011;11489;50.834;6.752;2023-02-28T01:26:22;7.70;;;3.47;;
22644;SDS011;11489;50.834;6.752;2023-02-28T01:28:49;7.73;;;3.63;;
22644;SDS011;11489;50.834;6.752;2023-02-28T01:31:16;5.83;;;3.43;;
22644;SDS011;11489;50.834;6.752;2023-02-28T01:33:43;6.80;;;3.33;;
22644;SDS011;11489;50.834;6.752;2023-02-28T01:36:11;4.67;;;2.83;;
22644;SDS011;11489;50.834;6.752;2023-02-28T01:38:39;7.07;;;3.13;;
22644;SDS011;11489;50.834;6.752;2023-02-28T01:41:05;4.93;;;2.80;;
22644;SDS011;11489;50.834;6.752;2023-02-28T01:46:13;6.27;;;2.90;;
22644;SDS011;11489;50.834;6.752;2023-02-28T01:48:44;7.90;;;3.10;;
22644;SDS011;11489;50.834;6.752;2023-02-28T01:51:39;4.70;;;2.60;;
22644;SDS011;11489;50.834;6.752;2023-02-28T01:54:11;5.70;;;2.30;;
22644;SDS011;11489;50.834;6.752;2023-02-28T01:56:43;2.90;;;2.20;;
22644;SDS011;11489;50.834;6.752;2023-02-28T01:59:13;4.33;;;2.40;;
22644;SDS011;11489;50.834;6.752;2023-02-28T02:01:45;5.10;;;2.43;;
22644;SDS011;11489;50.834;6.752;2023-02-28T02:04:11;6.33;;;2.80;;
22644;SDS011;11489;50.834;6.752;2023-02-28T02:06:38;5.77;;;2.30;;
22644;SDS011;11489;50.834;6.752;2023-02-28T02:09:09;5.00;;;2.80;;
22644;SDS011;11489;50.834;6.752;2023-02-28T02:11:36;4.57;;;2.60;;
22644;SDS011;11489;50.834;6.752;2023-02-28T02:17:13;4.20;;;2.67;;
22644;SDS011;11489;50.834;6.752;2023-02-28T02:23:07;7.13;;;3.60;;
22644;SDS011;11489;50.834;6.752;2023-02-28T02:25:54;7.67;;;3.40;;
22644;SDS011;11489;50.834;6.752;2023-02-28T02:37:13;8.03;;;3.57;;
22644;SDS011;11489;50.834;6.752;2023-02-28T02:39:47;5.87;;;3.23;;
22644;SDS011;11489;50.834;6.752;2023-02-28T02:42:20;7.60;;;3.40;;
22644;SDS011;11489;50.834;6.752;2023-02-28T02:44:58;6.70;;;3.37;;
22644;SDS011;11489;50.834;6.752;2023-02-28T02:47:31;6.87;;;3.17;;
22644;SDS011;11489;50.834;6.752;2023-02-28T02:50:02;6.80;;;3.20;;
22644;SDS011;11489;50.834;6.752;2023-02-28T02:52:34;8.03;;;3.33;;
22644;SDS011;11489;50.834;6.752;2023-02-28T02:55:04;7.73;;;3.43;;
22644;SDS011;11489;50.834;6.752;2023-02-28T02:57:34;8.73;;;3.27;;
22644;SDS011;11489;50.834;6.752;2023-02-28T03:00:03;5.67;;;2.93;;
22644;SDS011;11489;50.834;6.752;2023-02-28T03:02:34;6.03;;;3.10;;
22644;SDS011;11489;50.834;6.752;2023-02-28T03:05:04;7.20;;;3.37;;
22644;SDS011;11489;50.834;6.752;2023-02-28T03:07:36;5.83;;;2.90;;
22644;SDS011;11489;50.834;6.752;2023-02-28T03:10:02;6.63;;;3.03;;
22644;SDS011;11489;50.834;6.752;2023-02-28T03:12:40;6.97;;;3.30;;
22644;SDS011;11489;50.834;6.752;2023-02-28T03:15:21;7.50;;;3.10;;
22644;SDS011;11489;50.834;6.752;2023-02-28T03:18:08;7.57;;;3.30;;
22644;SDS011;11489;50.834;6.752;2023-02-28T03:20:46;6.67;;;3.07;;
22644;SDS011;11489;50.834;6.752;2023-02-28T03:23:32;6.37;;;3.07;;
22644;SDS011;11489;50.834;6.752;2023-02-28T03:26:21;6.63;;;4.07;;
22644;SDS011;11489;50.834;6.752;2023-02-28T03:34:08;7.97;;;3.50;;
22644;SDS011;11489;50.834;6.752;2023-02-28T03:36:48;7.40;;;3.70;;
22644;SDS011;11489;50.834;6.752;2023-02-28T03:39:23;7.27;;;3.47;;
22644;SDS011;11489;50.834;6.752;2023-02-28T03:41:59;6.63;;;3.30;;
22644;SDS011;11489;50.834;6.752;2023-02-28T03:44:45;6.10;;;3.33;;
22644;SDS011;11489;50.834;6.752;2023-02-28T03:47:35;5.20;;;3.40;;
22644;SDS011;11489;50.834;6.752;2023-02-28T03:50:13;7.10;;;3.80;;
22644;SDS011;11489;50.834;6.752;2023-02-28T03:52:47;8.37;;;3.93;;
22644;SDS011;11489;50.834;6.752;2023-02-28T03:55:25;7.97;;;3.57;;
22644;SDS011;11489;50.834;6.752;2023-02-28T04:00:27;5.93;;;3.47;;
22644;SDS011;11489;50.834;6.752;2023-02-28T04:02:58;4.20;;;2.93;;
22644;SDS011;11489;50.834;6.752;2023-02-28T04:05:24;7.30;;;3.10;;
22644;SDS011;11489;50.834;6.752;2023-02-28T04:07:50;4.80;;;3.13;;
22644;SDS011;11489;50.834;6.752;2023-02-28T04:10:16;5.60;;;3.27;;
22644;SDS011;11489;50.834;6.752;2023-02-28T04:12:42;7.40;;;3.00;;
22644;SDS011;11489;50.834;6.752;2023-02-28T04:15:08;6.13;;;3.60;;
22644;SDS011;11489;50.834;6.752;2023-02-28T04:17:35;6.33;;;3.70;;
22644;SDS011;11489;50.834;6.752;2023-02-28T04:20:01;6.27;;;3.53;;
22644;SDS011;11489;50.834;6.752;2023-02-28T04:22:28;5.60;;;3.77;;
22644;SDS011;11489;50.834;6.752;2023-02-28T04:24:53;5.80;;;3.50;;
22644;SDS011;11489;50.834;6.752;2023-02-28T04:27:20;7.13;;;3.93;;
22644;SDS011;11489;50.834;6.752;2023-02-28T04:29:46;6.50;;;4.00;;
22644;SDS011;11489;50.834;6.752;2023-02-28T04:32:11;6.20;;;3.90;;
22644;SDS011;11489;50.834;6.752;2023-02-28T04:34:37;6.60;;;3.77;;
22644;SDS011;11489;50.834;6.752;2023-02-28T04:37:04;7.00;;;3.80;;
22644;SDS011;11489;50.834;6.752;2023-02-28T04:39:29;5.80;;;3.40;;
22644;SDS011;11489;50.834;6.752;2023-02-28T04:41:55;6.80;;;3.93;;
22644;SDS011;11489;50.834;6.752;2023-02-28T04:44:21;10.53;;;4.43;;
22644;SDS011;11489;50.834;6.752;2023-02-28T04:46:47;6.07;;;3.70;;
22644;SDS011;11489;50.834;6.752;2023-02-28T04:49:14;5.10;;;3.27;;
22644;SDS011;11489;50.834;6.752;2023-02-28T04:51:40;6.40;;;3.80;;
22644;SDS011;11489;50.834;6.752;2023-02-28T04:54:06;6.27;;;3.60;;
22644;SDS011;11489;50.834;6.752;2023-02-28T04:56:32;5.80;;;3.57;;
22644;SDS011;11489;50.834;6.752;2023-02-28T04:58:58;8.30;;;3.60;;
22644;SDS011;11489;50.834;6.752;2023-02-28T05:01:26;5.73;;;3.17;;
22644;SDS011;11489;50.834;6.752;2023-02-28T05:03:54;5.87;;;3.60;;
22644;SDS011;11489;50.834;6.752;2023-02-28T05:06:22;5.10;;;3.07;;
22644;SDS011;11489;50.834;6.752;2023-02-28T05:08:49;7.23;;;3.73;;
22644;SDS011;11489;50.834;6.752;2023-02-28T05:11:17;7.57;;;4.00;;
22644;SDS011;11489;50.834;6.752;2023-02-28T05:13:43;7.23;;;3.60;;
22644;SDS011;11489;50.834;6.752;2023-02-28T05:16:09;7.67;;;3.90;;
22644;SDS011;11489;50.834;6.752;2023-02-28T05:18:35;6.53;;;3.80;;
22644;SDS011;11489;50.834;6.752;2023-02-28T05:21:01;5.40;;;3.47;;
22644;SDS011;11489;50.834;6.752;2023-02-28T05:23:27;7.07;;;3.83;;
22644;SDS011;11489;50.834;6.752;2023-02-28T05:25:53;6.23;;;3.70;;
22644;SDS011;11489;50.834;6.752;2023-02-28T05:28:19;6.80;;;4.20;;
22644;SDS011;11489;50.834;6.752;2023-02-28T05:30:45;6.30;;;3.50;;
22644;SDS011;11489;50.834;6.752;2023-02-28T05:33:11;6.80;;;3.83;;
22644;SDS011;11489;50.834;6.752;2023-02-28T05:35:41;5.20;;;3.47;;
22644;SDS011;11489;50.834;6.752;2023-02-28T05:38:10;5.33;;;3.43;;
22644;SDS011;11489;50.834;6.752;2023-02-28T05:40:37;12.83;;;4.00;;
22644;SDS011;11489;50.834;6.752;2023-02-28T05:43:04;7.30;;;3.63;;
22644;SDS011;11489;50.834;6.752;2023-02-28T05:45:29;7.47;;;4.00;;
22644;SDS011;11489;50.834;6.752;2023-02-28T05:47:55;7.00;;;3.70;;
22644;SDS011;11489;50.834;6.752;2023-02-28T05:50:21;8.03;;;3.47;;
22644;SDS011;11489;50.834;6.752;2023-02-28T05:52:50;7.00;;;3.40;;
22644;SDS011;11489;50.834;6.752;2023-02-28T05:55:17;6.60;;;3.50;;
22644;SDS011;11489;50.834;6.752;2023-02-28T05:57:43;6.57;;;3.30;;
22644;SDS011;11489;50.834;6.752;2023-02-28T06:00:09;6.23;;;3.70;;
22644;SDS011;11489;50.834;6.752;2023-02-28T06:02:37;4.80;;;3.27;;
22644;SDS011;11489;50.834;6.752;2023-02-28T06:05:05;6.30;;;3.20;;
22644;SDS011;11489;50.834;6.752;2023-02-28T06:07:32;5.43;;;3.20;;
22644;SDS011;11489;50.834;6.752;2023-02-28T06:09:57;9.53;;;3.30;;
22644;SDS011;11489;50.834;6.752;2023-02-28T06:12:23;6.13;;;3.27;;
22644;SDS011;11489;50.834;6.752;2023-02-28T06:14:49;4.77;;;2.90;;
22644;SDS011;11489;50.834;6.752;2023-02-28T06:17:14;6.67;;;3.10;;
22644;SDS011;11489;50.834;6.752;2023-02-28T06:19:40;6.93;;;3.20;;
22644;SDS011;11489;50.834;6.752;2023-02-28T06:22:06;6.63;;;3.40;;
22644;SDS011;11489;50.834;6.752;2023-02-28T06:24:32;5.00;;;2.87;;
22644;SDS011;11489;50.834;6.752;2023-02-28T06:26:57;6.17;;;3.30;;
22644;SDS011;11489;50.834;6.752;2023-02-28T06:29:30;4.87;;;3.20;;
22644;SDS011;11489;50.834;6.752;2023-02-28T06:31:56;4.97;;;2.87;;
22644;SDS011;11489;50.834;6.752;2023-02-28T06:34:22;6.23;;;3.07;;
22644;SDS011;11489;50.834;6.752;2023-02-28T06:36:49;4.57;;;3.13;;
22644;SDS011;11489;50.834;6.752;2023-02-28T06:39:16;5.20;;;3.47;;
22644;SDS011;11489;50.834;6.752;2023-02-28T06:41:42;5.60;;;3.27;;
22644;SDS011;11489;50.834;6.752;2023-02-28T06:44:19;6.70;;;3.17;;
22644;SDS011;11489;50.834;6.752;2023-02-28T06:46:46;8.50;;;3.57;;
22644;SDS011;11489;50.834;6.752;2023-02-28T06:49:12;5.13;;;3.40;;
22644;SDS011;11489;50.834;6.752;2023-02-28T06:51:39;5.40;;;3.43;;
22644;SDS011;11489;50.834;6.752;2023-02-28T06:54:06;6.33;;;3.90;;
22644;SDS011;11489;50.834;6.752;2023-02-28T06:56:35;7.03;;;4.37;;
22644;SDS011;11489;50.834;6.752;2023-02-28T06:59:01;8.80;;;5.07;;
22644;SDS011;11489;50.834;6.752;2023-02-28T07:01:27;7.43;;;5.00;;
22644;SDS011;11489;50.834;6.752;2023-02-28T07:03:53;11.20;;;5.13;;
22644;SDS011;11489;50.834;6.752;2023-02-28T07:06:20;9.33;;;5.47;;
22644;SDS011;11489;50.834;6.752;2023-02-28T07:08:48;9.60;;;6.00;;
22644;SDS011;11489;50.834;6.752;2023-02-28T07:11:14;9.67;;;5.83;;
22644;SDS011;11489;50.834;6.752;2023-02-28T07:13:40;9.73;;;6.03;;
22644;SDS011;11489;50.834;6.752;2023-02-28T07:16:06;8.77;;;5.57;;
22644;SDS011;11489;50.834;6.752;2023-02-28T07:18:34;14.33;;;5.53;;
22644;SDS011;11489;50.834;6.752;2023-02-28T07:21:07;9.20;;;5.93;;
22644;SDS011;11489;50.834;6.752;2023-02-28T07:23:34;9.30;;;5.70;;
22644;SDS011;11489;50.834;6.752;2023-02-28T07:26:00;11.70;;;6.13;;
22644;SDS011;11489;50.834;6.752;2023-02-28T07:28:26;12.60;;;7.53;;
22644;SDS011;11489;50.834;6.752;2023-02-28T07:30:52;10.77;;;6.50;;
22644;SDS011;11489;50.834;6.752;2023-02-28T07:33:18;11.07;;;6.30;;
22644;SDS011;11489;50.834;6.752;2023-02-28T07:35:43;10.73;;;6.23;;
22644;SDS011;11489;50.834;6.752;2023-02-28T07:38:09;9.60;;;5.80;;
22644;SDS011;11489;50.834;6.752;2023-02-28T07:40:35;9.13;;;5.67;;
22644;SDS011;11489;50.834;6.752;2023-02-28T07:43:02;8.20;;;5.10;;
22644;SDS011;11489;50.834;6.752;2023-02-28T07:45:28;12.90;;;5.30;;
22644;SDS011;11489;50.834;6.752;2023-02-28T07:47:56;10.20;;;4.50;;
22644;SDS011;11489;50.834;6.752;2023-02-28T07:50:22;8.63;;;4.30;;
22644;SDS011;11489;50.834;6.752;2023-02-28T07:52:48;8.37;;;5.17;;
22644;SDS011;11489;50.834;6.752;2023-02-28T07:55:14;9.43;;;4.80;;
22644;SDS011;11489;50.834;6.752;2023-02-28T07:57:41;9.43;;;4.87;;
22644;SDS011;11489;50.834;6.752;2023-02-28T08:00:08;8.37;;;4.93;;
22644;SDS011;11489;50.834;6.752;2023-02-28T08:02:35;6.83;;;4.17;;
22644;SDS011;11489;50.834;6.752;2023-02-28T08:05:01;7.17;;;4.10;;
22644;SDS011;11489;50.834;6.752;2023-02-28T08:07:27;8.53;;;4.23;;
22644;SDS011;11489;50.834;6.752;2023-02-28T08:09:53;5.47;;;3.50;;
22644;SDS011;11489;50.834;6.752;2023-02-28T08:12:18;7.90;;;3.80;;
22644;SDS011;11489;50.834;6.752;2023-02-28T08:14:45;7.60;;;4.20;;
22644;SDS011;11489;50.834;6.752;2023-02-28T08:17:10;4.77;;;3.47;;
22644;SDS011;11489;50.834;6.752;2023-02-28T08:19:36;6.20;;;3.93;;
22644;SDS011;11489;50.834;6.752;2023-02-28T08:22:02;7.73;;;4.10;;
22644;SDS011;11489;50.834;6.752;2023-02-28T08:24:28;5.50;;;3.40;;
22644;SDS011;11489;50.834;6.752;2023-02-28T08:26:53;7.03;;;4.43;;
22644;SDS011;11489;50.834;6.752;2023-02-28T08:29:19;8.27;;;4.37;;
22644;SDS011;11489;50.834;6.752;2023-02-28T08:31:45;5.70;;;3.70;;
22644;SDS011;11489;50.834;6.752;2023-02-28T08:34:13;9.17;;;3.67;;
22644;SDS011;11489;50.834;6.752;2023-02-28T08:36:39;5.70;;;3.77;;
22644;SDS011;11489;50.834;6.752;2023-02-28T08:39:06;6.63;;;3.47;;
22644;SDS011;11489;50.834;6.752;2023-02-28T08:41:32;7.10;;;3.87;;
22644;SDS011;11489;50.834;6.752;2023-02-28T08:43:58;4.70;;;3.10;;
22644;SDS011;11489;50.834;6.752;2023-02-28T08:46:24;5.87;;;3.00;;
22644;SDS011;11489;50.834;6.752;2023-02-28T08:48:53;5.17;;;3.10;;
22644;SDS011;11489;50.834;6.752;2023-02-28T08:51:20;5.17;;;3.20;;
22644;SDS011;11489;50.834;6.752;2023-02-28T08:53:51;5.03;;;3.17;;
22644;SDS011;11489;50.834;6.752;2023-02-28T08:56:18;5.20;;;3.93;;
22644;SDS011;11489;50.834;6.752;2023-02-28T08:58:44;4.63;;;3.37;;
22644;SDS011;11489;50.834;6.752;2023-02-28T09:01:13;4.90;;;2.90;;
22644;SDS011;11489;50.834;6.752;2023-02-28T09:03:41;4.67;;;2.73;;
22644;SDS011;11489;50.834;6.752;2023-02-28T09:06:07;4.80;;;3.10;;
22644;SDS011;11489;50.834;6.752;2023-02-28T09:08:34;5.03;;;2.80;;
22644;SDS011;11489;50.834;6.752;2023-02-28T09:11:01;6.97;;;2.90;;
22644;SDS011;11489;50.834;6.752;2023-02-28T09:13:28;4.17;;;2.53;;
22644;SDS011;11489;50.834;6.752;2023-02-28T09:15:57;4.10;;;2.60;;
22644;SDS011;11489;50.834;6.752;2023-02-28T09:18:24;3.33;;;2.30;;
22644;SDS011;11489;50.834;6.752;2023-02-28T09:20:51;3.20;;;2.33;;
22644;SDS011;11489;50.834;6.752;2023-02-28T09:23:17;4.63;;;2.10;;
22644;SDS011;11489;50.834;6.752;2023-02-28T09:25:47;5.63;;;2.20;;
22644;SDS011;11489;50.834;6.752;2023-02-28T09:28:15;3.50;;;2.30;;
22644;SDS011;11489;50.834;6.752;2023-02-28T09:30:46;4.10;;;2.57;;
22644;SDS011;11489;50.834;6.752;2023-02-28T09:33:14;3.67;;;2.27;;
22644;SDS011;11489;50.834;6.752;2023-02-28T09:35:40;4.27;;;2.40;;
22644;SDS011;11489;50.834;6.752;2023-02-28T09:38:06;3.57;;;2.50;;
22644;SDS011;11489;50.834;6.752;2023-02-28T09:40:36;5.50;;;2.40;;
22644;SDS011;11489;50.834;6.752;2023-02-28T09:43:04;3.37;;;2.23;;
22644;SDS011;11489;50.834;6.752;2023-02-28T09:45:35;5.40;;;2.50;;
22644;SDS011;11489;50.834;6.752;2023-02-28T09:48:09;4.60;;;2.33;;
22644;SDS011;11489;50.834;6.752;2023-02-28T09:50:43;3.73;;;2.10;;
22644;SDS011;11489;50.834;6.752;2023-02-28T09:53:24;3.67;;;2.33;;
22644;SDS011;11489;50.834;6.752;2023-02-28T09:55:54;3.17;;;2.40;;
22644;SDS011;11489;50.834;6.752;2023-02-28T10:01:07;4.73;;;2.70;;
22644;SDS011;11489;50.834;6.752;2023-02-28T10:03:43;3.50;;;2.37;;
22644;SDS011;11489;50.834;6.752;2023-02-28T10:06:20;3.50;;;2.50;;
22644;SDS011;11489;50.834;6.752;2023-02-28T10:09:02;5.67;;;2.30;;
22644;SDS011;11489;50.834;6.752;2023-02-28T10:11:32;4.87;;;2.83;;
22644;SDS011;11489;50.834;6.752;2023-02-28T10:14:10;6.03;;;2.70;;
22644;SDS011;11489;50.834;6.752;2023-02-28T10:16:40;3.75;;;2.45;;
22644;SDS011;11489;50.834;6.752;2023-02-28T10:19:20;4.10;;;2.78;;
22644;SDS011;11489;50.834;6.752;2023-02-28T10:24:42;5.97;;;2.85;;
22644;SDS011;11489;50.834;6.752;2023-02-28T10:27:13;4.10;;;2.65;;
22644;SDS011;11489;50.834;6.752;2023-02-28T10:29:51;4.68;;;3.13;;
22644;SDS011;11489;50.834;6.752;2023-02-28T10:32:19;5.15;;;2.45;;
22644;SDS011;11489;50.834;6.752;2023-02-28T10:34:51;6.53;;;2.90;;
22644;SDS011;11489;50.834;6.752;2023-02-28T10:37:25;5.28;;;3.00;;
22644;SDS011;11489;50.834;6.752;2023-02-28T10:39:52;4.18;;;2.67;;
22644;SDS011;11489;50.834;6.752;2023-02-28T10:45:04;3.83;;;2.80;;
22644;SDS011;11489;50.834;6.752;2023-02-28T10:50:26;5.35;;;3.13;;
22644;SDS011;11489;50.834;6.752;2023-02-28T10:52:53;11.00;;;2.97;;
22644;SDS011;11489;50.834;6.752;2023-02-28T10:55:23;4.70;;;3.20;;
22644;SDS011;11489;50.834;6.752;2023-02-28T10:57:50;5.35;;;3.38;;
22644;SDS011;11489;50.834;6.752;2023-02-28T11:00:21;4.82;;;3.13;;
22644;SDS011;11489;50.834;6.752;2023-02-28T11:02:52;5.22;;;3.08;;
22644;SDS011;11489;50.834;6.752;2023-02-28T11:07:54;4.60;;;3.38;;
22644;SDS011;11489;50.834;6.752;2023-02-28T11:10:23;4.25;;;2.80;;
22644;SDS011;11489;50.834;6.752;2023-02-28T11:12:54;4.47;;;2.90;;
22644;SDS011;11489;50.834;6.752;2023-02-28T11:15:23;4.78;;;3.33;;
22644;SDS011;11489;50.834;6.752;2023-02-28T11:20:23;4.53;;;3.42;;
22644;SDS011;11489;50.834;6.752;2023-02-28T11:22:53;5.10;;;3.10;;
22644;SDS011;11489;50.834;6.752;2023-02-28T11:25:33;5.35;;;3.40;;
22644;SDS011;11489;50.834;6.752;2023-02-28T11:28:02;5.00;;;3.25;;
22644;SDS011;11489;50.834;6.752;2023-02-28T11:30:38;3.85;;;2.70;;
22644;SDS011;11489;50.834;6.752;2023-02-28T11:33:48;4.15;;;2.67;;
22644;SDS011;11489;50.834;6.752;2023-02-28T11:35:57;4.50;;;2.97;;
22644;SDS011;11489;50.834;6.752;2023-02-28T11:38:27;4.18;;;3.08;;
22644;SDS011;11489;50.834;6.752;2023-02-28T11:46:03;4.40;;;3.10;;
22644;SDS011;11489;50.834;6.752;2023-02-28T11:48:37;6.20;;;3.55;;
22644;SDS011;11489;50.834;6.752;2023-02-28T11:54:05;6.82;;;3.30;;
22644;SDS011;11489;50.834;6.752;2023-02-28T11:56:47;4.93;;;3.17;;
22644;SDS011;11489;50.834;6.752;2023-02-28T12:10:53;6.13;;;3.28;;
22644;SDS011;11489;50.834;6.752;2023-02-28T12:13:29;6.47;;;3.42;;
22644;SDS011;11489;50.834;6.752;2023-02-28T12:16:17;5.28;;;2.85;;
22644;SDS011;11489;50.834;6.752;2023-02-28T12:19:19;4.53;;;3.10;;
22644;SDS011;11489;50.834;6.752;2023-02-28T12:27:31;5.28;;;3.10;;
22644;SDS011;11489;50.834;6.752;2023-02-28T12:30:08;5.80;;;3.20;;
22644;SDS011;11489;50.834;6.752;2023-02-28T12:33:12;4.88;;;2.90;;
22644;SDS011;11489;50.834;6.752;2023-02-28T12:38:28;4.43;;;2.58;;
22644;SDS011;11489;50.834;6.752;2023-02-28T12:41:03;3.92;;;2.63;;
22644;SDS011;11489;50.834;6.752;2023-02-28T12:43:37;4.55;;;2.95;;
22644;SDS011;11489;50.834;6.752;2023-02-28T12:46:24;4.97;;;3.08;;
22644;SDS011;11489;50.834;6.752;2023-02-28T12:48:57;4.50;;;3.05;;
22644;SDS011;11489;50.834;6.752;2023-02-28T12:51:28;3.92;;;2.70;;
22644;SDS011;11489;50.834;6.752;2023-02-28T12:53:59;4.47;;;2.95;;
22644;SDS011;11489;50.834;6.752;2023-02-28T13:02:19;4.82;;;3.30;;
22644;SDS011;11489;50.834;6.752;2023-02-28T13:10:43;7.70;;;4.13;;
22644;SDS011;11489;50.834;6.752;2023-02-28T13:13:17;4.95;;;3.40;;
22644;SDS011;11489;50.834;6.752;2023-02-28T13:18:32;5.25;;;3.30;;
22644;SDS011;11489;50.834;6.752;2023-02-28T13:20:58;7.22;;;3.78;;
22644;SDS011;11489;50.834;6.752;2023-02-28T13:23:37;7.38;;;3.75;;
22644;SDS011;11489;50.834;6.752;2023-02-28T13:26:12;4.60;;;3.00;;
22644;SDS011;11489;50.834;6.752;2023-02-28T13:28:57;5.40;;;3.58;;
22644;SDS011;11489;50.834;6.752;2023-02-28T13:31:26;4.80;;;3.58;;
22644;SDS011;11489;50.834;6.752;2023-02-28T13:36:28;4.65;;;3.28;;
22644;SDS011;11489;50.834;6.752;2023-02-28T13:38:58;4.68;;;3.25;;
22644;SDS011;11489;50.834;6.752;2023-02-28T13:46:34;4.75;;;3.40;;
22644;SDS011;11489;50.834;6.752;2023-02-28T13:55:10;7.15;;;4.00;;
22644;SDS011;11489;50.834;6.752;2023-02-28T14:00:08;5.20;;;3.60;;
22644;SDS011;11489;50.834;6.752;2023-02-28T14:03:01;4.88;;;3.58;;
22644;SDS011;11489;50.834;6.752;2023-02-28T14:06:07;5.78;;;3.50;;
22644;SDS011;11489;50.834;6.752;2023-02-28T14:08:35;5.63;;;3.60;;
22644;SDS011;11489;50.834;6.752;2023-02-28T14:11:06;6.28;;;3.80;;
22644;SDS011;11489;50.834;6.752;2023-02-28T14:16:14;7.95;;;3.90;;
22644;SDS011;11489;50.834;6.752;2023-02-28T14:19:09;6.95;;;4.30;;
22644;SDS011;11489;50.834;6.752;2023-02-28T14:21:36;6.57;;;3.80;;
22644;SDS011;11489;50.834;6.752;2023-02-28T14:30:01;5.63;;;3.75;;
22644;SDS011;11489;50.834;6.752;2023-02-28T14:33:41;4.95;;;3.70;;
22644;SDS011;11489;50.834;6.752;2023-02-28T14:36:03;6.63;;;3.72;;
22644;SDS011;11489;50.834;6.752;2023-02-28T14:38:41;6.32;;;3.97;;
22644;SDS011;11489;50.834;6.752;2023-02-28T14:41:16;6.50;;;3.80;;
22644;SDS011;11489;50.834;6.752;2023-02-28T14:43:57;4.65;;;3.47;;
22644;SDS011;11489;50.834;6.752;2023-02-28T14:46:35;8.27;;;4.00;;
22644;SDS011;11489;50.834;6.752;2023-02-28T14:49:04;6.43;;;3.70;;
22644;SDS011;11489;50.834;6.752;2023-02-28T14:51:32;8.90;;;3.90;;
22644;SDS011;11489;50.834;6.752;2023-02-28T14:53:59;5.22;;;3.60;;
22644;SDS011;11489;50.834;6.752;2023-02-28T14:56:28;6.15;;;3.65;;
22644;SDS011;11489;50.834;6.752;2023-02-28T14:59:00;5.35;;;3.45;;
22644;SDS011;11489;50.834;6.752;2023-02-28T15:01:26;6.47;;;4.07;;
22644;SDS011;11489;50.834;6.752;2023-02-28T15:03:59;6.72;;;3.95;;
22644;SDS011;11489;50.834;6.752;2023-02-28T15:06:26;5.55;;;4.07;;
22644;SDS011;11489;50.834;6.752;2023-02-28T15:09:08;8.23;;;4.10;;
22644;SDS011;11489;50.834;6.752;2023-02-28T15:11:35;6.82;;;4.38;;
22644;SDS011;11489;50.834;6.752;2023-02-28T15:14:12;8.48;;;4.45;;
22644;SDS011;11489;50.834;6.752;2023-02-28T15:16:42;7.82;;;4.32;;
22644;SDS011;11489;50.834;6.752;2023-02-28T15:19:18;6.28;;;3.63;;
22644;SDS011;11489;50.834;6.752;2023-02-28T15:21:56;8.63;;;4.25;;
22644;SDS011;11489;50.834;6.752;2023-02-28T15:24:40;10.20;;;4.20;;
22644;SDS011;11489;50.834;6.752;2023-02-28T15:27:12;5.05;;;3.92;;
22644;SDS011;11489;50.834;6.752;2023-02-28T15:29:53;6.22;;;4.10;;
22644;SDS011;11489;50.834;6.752;2023-02-28T15:32:28;7.07;;;4.13;;
22644;SDS011;11489;50.834;6.752;2023-02-28T15:34:59;6.30;;;4.10;;
22644;SDS011;11489;50.834;6.752;2023-02-28T15:48:20;7.13;;;4.70;;
22644;SDS011;11489;50.834;6.752;2023-02-28T15:50:56;5.85;;;4.00;;
22644;SDS011;11489;50.834;6.752;2023-02-28T15:53:47;5.75;;;3.78;;
22644;SDS011;11489;50.834;6.752;2023-02-28T15:56:33;8.60;;;4.30;;
22644;SDS011;11489;50.834;6.752;2023-02-28T15:59:07;8.23;;;4.40;;
22644;SDS011;11489;50.834;6.752;2023-02-28T16:01:41;6.68;;;3.92;;
22644;SDS011;11489;50.834;6.752;2023-02-28T16:04:17;7.32;;;4.30;;
22644;SDS011;11489;50.834;6.752;2023-02-28T16:06:44;5.82;;;4.22;;
22644;SDS011;11489;50.834;6.752;2023-02-28T16:09:31;7.65;;;4.43;;
22644;SDS011;11489;50.834;6.752;2023-02-28T16:11:59;6.93;;;4.97;;
22644;SDS011;11489;50.834;6.752;2023-02-28T16:14:27;5.55;;;4.05;;
22644;SDS011;11489;50.834;6.752;2023-02-28T16:17:04;7.53;;;4.20;;
22644;SDS011;11489;50.834;6.752;2023-02-28T16:19:47;6.00;;;4.00;;
22644;SDS011;11489;50.834;6.752;2023-02-28T16:22:13;6.03;;;3.75;;
22644;SDS011;11489;50.834;6.752;2023-02-28T16:24:39;7.05;;;4.05;;
22644;SDS011;11489;50.834;6.752;2023-02-28T16:27:05;7.35;;;4.35;;
22644;SDS011;11489;50.834;6.752;2023-02-28T16:29:35;5.47;;;3.60;;
22644;SDS011;11489;50.834;6.752;2023-02-28T16:32:04;5.93;;;3.83;;
22644;SDS011;11489;50.834;6.752;2023-02-28T16:34:30;10.68;;;4.50;;
22644;SDS011;11489;50.834;6.752;2023-02-28T16:36:56;6.85;;;4.13;;
22644;SDS011;11489;50.834;6.752;2023-02-28T16:39:22;6.22;;;3.90;;
22644;SDS011;11489;50.834;6.752;2023-02-28T16:41:48;7.85;;;3.95;;
22644;SDS011;11489;50.834;6.752;2023-02-28T16:47:14;7.15;;;3.92;;
22644;SDS011;11489;50.834;6.752;2023-02-28T16:49:40;7.32;;;3.70;;
22644;SDS011;11489;50.834;6.752;2023-02-28T16:52:08;6.03;;;3.80;;
22644;SDS011;11489;50.834;6.752;2023-02-28T16:54:35;5.97;;;3.65;;
22644;SDS011;11489;50.834;6.752;2023-02-28T16:57:01;6.93;;;3.50;;
22644;SDS011;11489;50.834;6.752;2023-02-28T16:59:27;6.13;;;3.33;;
22644;SDS011;11489;50.834;6.752;2023-02-28T17:01:54;6.78;;;3.83;;
22644;SDS011;11489;50.834;6.752;2023-02-28T17:04:21;7.25;;;3.60;;
22644;SDS011;11489;50.834;6.752;2023-02-28T17:06:47;8.50;;;3.72;;
22644;SDS011;11489;50.834;6.752;2023-02-28T17:09:17;6.75;;;4.00;;